Voyageur Independent — CFN4292 — position and weather

sailwx.info

Track history (hours):
 
Tides and Currents Weather Stations Pressure Air Temp Water Temp Dewpoint Dewpoint Depression Visibility Wind Speed Wind Dir Waves Ship Positions

Voyageur Independent

Last reported at 2018-May-25 10:57 UTC. Time now 2018-May-26 04:01 UTC.
Position N 45°14' W 074°11'.

Length 191 m; draft 6 m.

Type: Cargo ship. MMSI: 316607241.

Date/timePositionNaut miles runAvg speedWind from/ knotsBaromVisibWave heightAir tempDewpointWater temp
2018-May-25 10:57N 45°14' W 074°11'5 8.7
2018-May-25 10:22N 45°13' W 074°03'3 8.4
2018-May-25 10:00N 45°14' W 073°59'4 8.3
2018-May-25 09:30N 45°18' W 073°56'1 1.0
2018-May-25 09:00N 45°18' W 073°56'1 1.5
2018-May-25 08:30N 45°19' W 073°55'0 0.4
2018-May-25 08:00N 45°19' W 073°55'2 3.2
2018-May-25 07:30N 45°20' W 073°53'510.1
2018-May-25 07:00N 45°23' W 073°48'4 8.7
2018-May-25 06:30N 45°25' W 073°42'3 5.7
2018-May-25 06:00N 45°24' W 073°38'1 3.0
2018-May-25 05:30N 45°24' W 073°36'0 0.0
2018-May-25 05:00N 45°24' W 073°36'0 1.0
2018-May-25 04:30N 45°24' W 073°35'1 1.9
2018-May-25 04:00N 45°24' W 073°34'1 2.0
2018-May-25 03:30N 45°24' W 073°33'2 4.4
2018-May-25 03:00N 45°26' W 073°30'4 4.9
2018-May-25 02:15N 45°30' W 073°31'0 0.3
2018-May-25 02:00N 45°30' W 073°31'0 0.5
2018-May-25 01:30N 45°30' W 073°31'0 0.7
2018-May-25 01:00N 45°30' W 073°31'5 4.1
2018-May-24 23:40N 45°36' W 073°30'2 6.6
2018-May-24 23:26N 45°37' W 073°30'3 7.4
2018-May-24 22:59N 45°40' W 073°28'5 9.0
2018-May-24 22:29N 45°44' W 073°25'4 9.1
2018-May-24 22:00N 45°47' W 073°21'5 9.4
2018-May-24 21:30N 45°51' W 073°16'5 9.0
2018-May-24 20:59N 45°55' W 073°13'4 9.0
2018-May-24 20:30N 45°59' W 073°11'4 8.0
2018-May-24 20:00N 46°03' W 073°09'1 2.6
2018-May-24 19:27N 46°03' W 073°07'0 0.0
2018-May-24 19:00N 46°03' W 073°07'0 0.0
2018-May-24 18:30N 46°03' W 073°07'0 0.0
2018-May-24 18:00N 46°03' W 073°07'0 0.0
2018-May-24 17:30N 46°03' W 073°07'0 0.0
2018-May-24 17:00N 46°03' W 073°07'0 0.0
2018-May-24 16:30N 46°03' W 073°07'0 0.0
2018-May-24 15:59N 46°03' W 073°07'0 0.0
2018-May-24 15:30N 46°03' W 073°07'0 0.0
2018-May-24 15:00N 46°03' W 073°07'0 0.0
2018-May-24 14:30N 46°03' W 073°07'0 0.0
2018-May-24 14:00N 46°03' W 073°07'0 0.0
2018-May-24 13:30N 46°03' W 073°07'0 0.0
2018-May-24 09:00N 46°03' W 073°07'0 0.0
2018-May-24 08:28N 46°03' W 073°07'0 0.0
2018-May-24 08:00N 46°03' W 073°07'0 0.0
2018-May-24 07:30N 46°03' W 073°07'0 0.0
2018-May-24 07:00N 46°03' W 073°07'0 0.0
2018-May-24 06:30N 46°03' W 073°07'0 0.0
2018-May-24 06:00N 46°03' W 073°07'0 0.0
2018-May-24 05:30N 46°03' W 073°07'0 0.0
2018-May-24 05:00N 46°03' W 073°07'0 0.0
2018-May-24 04:30N 46°03' W 073°07'0 0.0
2018-May-24 04:00N 46°03' W 073°07'0 0.0
2018-May-24 03:30N 46°03' W 073°07'0 0.0
2018-May-24 03:00N 46°03' W 073°07'0 0.0
2018-May-24 02:30N 46°03' W 073°07'0 0.1
2018-May-24 02:00N 46°03' W 073°07'0 0.1
2018-May-24 01:29N 46°03' W 073°07'0 0.0
2018-May-24 01:00N 46°03' W 073°07'0 0.0
2018-May-24 00:30N 46°03' W 073°07'0 0.0
2018-May-24 00:00N 46°03' W 073°07'0 0.0
2018-May-23 23:30N 46°03' W 073°07'0 0.0
2018-May-23 23:00N 46°03' W 073°07'0 0.0
2018-May-23 22:30N 46°03' W 073°07'0 0.0
2018-May-23 21:59N 46°03' W 073°07'0 0.0
2018-May-23 21:29N 46°03' W 073°07'0 0.0
2018-May-23 21:00N 46°03' W 073°07'0 0.0
2018-May-23 20:29N 46°03' W 073°07'0 0.0
2018-May-23 20:00N 46°03' W 073°07'0 0.0
2018-May-23 19:30N 46°03' W 073°07'0 0.0
2018-May-23 19:00N 46°03' W 073°07'0 0.0
2018-May-23 18:30N 46°03' W 073°07'0 0.0
2018-May-23 18:00N 46°03' W 073°07'0 0.0
2018-May-23 17:30N 46°03' W 073°07'0 0.0
2018-May-23 17:00N 46°03' W 073°07'0 0.0
2018-May-23 16:29N 46°03' W 073°07'0 0.0
2018-May-23 16:00N 46°03' W 073°07'0 0.0
2018-May-23 15:29N 46°03' W 073°07'0 0.0
2018-May-23 15:00N 46°03' W 073°07'0 0.0
2018-May-23 14:28N 46°03' W 073°07'0 0.0
2018-May-23 13:59N 46°03' W 073°07'0 0.0
2018-May-23 13:28N 46°03' W 073°07'0 0.0
2018-May-23 13:00N 46°03' W 073°07'0 0.0
2018-May-23 12:30N 46°03' W 073°07'0 0.0
2018-May-23 12:00N 46°03' W 073°07'0 0.0
2018-May-23 11:29N 46°03' W 073°07'0 0.0
2018-May-23 11:00N 46°03' W 073°07'0 0.0
2018-May-23 10:30N 46°03' W 073°07'0 0.0
2018-May-23 10:00N 46°03' W 073°07'0 0.0
2018-May-23 09:30N 46°03' W 073°07'0 0.0
2018-May-23 09:00N 46°03' W 073°07'0 0.0
2018-May-23 08:29N 46°03' W 073°07'0 0.0
2018-May-23 08:00N 46°03' W 073°07'0 0.0
2018-May-23 07:30N 46°03' W 073°07'0 0.0
2018-May-23 06:59N 46°03' W 073°07'0 0.0
2018-May-23 06:30N 46°03' W 073°07'0 0.4
2018-May-23 06:00N 46°03' W 073°07'1 1.7
2018-May-23 05:30N 46°03' W 073°08'510.3
2018-May-23 05:00N 45°58' W 073°12'612.9
2018-May-23 04:30N 45°53' W 073°15'713.3
2018-May-23 04:00N 45°47' W 073°21'713.2
2018-May-23 03:30N 45°42' W 073°27'611.4
2018-May-23 03:00N 45°37' W 073°30'6 8.6
2018-May-23 02:15N 45°30' W 073°31'1 2.3
2018-May-23 02:00N 45°30' W 073°31'0 0.3
2018-May-23 01:30N 45°30' W 073°31'2 3.9
2018-May-23 01:00N 45°28' W 073°30'3 5.9
2018-May-23 00:30N 45°25' W 073°31'2 4.1
2018-May-23 00:00N 45°24' W 073°34'0 0.5
2018-May-22 23:30N 45°24' W 073°34'1 2.6
2018-May-22 22:58N 45°24' W 073°36'2 5.0
2018-May-22 22:30N 45°25' W 073°40'3 5.6
2018-May-22 22:00N 45°24' W 073°43'5 9.1
2018-May-22 21:30N 45°22' W 073°49'5 9.7
2018-May-22 20:59N 45°19' W 073°55'0 0.6
2018-May-22 20:30N 45°19' W 073°55'1 1.5
2018-May-22 20:00N 45°18' W 073°56'0 0.3
2018-May-22 19:30N 45°18' W 073°56'1 2.5
2018-May-22 19:00N 45°17' W 073°56'4 8.1
2018-May-22 18:30N 45°14' W 074°00'  
Track history (hours):
 
Tides and Currents Weather Stations Pressure Air Temp Water Temp Dewpoint Dewpoint Depression Visibility Wind Speed Wind Dir Waves Ship Positions

Voyageur Independent

Last reported at 2018-May-25 10:57 UTC. Time now 2018-May-26 04:01 UTC.
Position N 45°14' W 074°11'.

Length 191 m; draft 6 m.

Type: Cargo ship. MMSI: 316607241.

Date/timePositionNaut miles runAvg speedWind from/ knotsBaromVisibWave heightAir tempDewpointWater temp
2018-May-25 10:57N 45°14' W 074°11'5 8.7
2018-May-25 10:22N 45°13' W 074°03'3 8.4
2018-May-25 10:00N 45°14' W 073°59'4 8.3
2018-May-25 09:30N 45°18' W 073°56'1 1.0
2018-May-25 09:00N 45°18' W 073°56'1 1.5
2018-May-25 08:30N 45°19' W 073°55'0 0.4
2018-May-25 08:00N 45°19' W 073°55'2 3.2
2018-May-25 07:30N 45°20' W 073°53'510.1
2018-May-25 07:00N 45°23' W 073°48'4 8.7
2018-May-25 06:30N 45°25' W 073°42'3 5.7
2018-May-25 06:00N 45°24' W 073°38'1 3.0
2018-May-25 05:30N 45°24' W 073°36'0 0.0
2018-May-25 05:00N 45°24' W 073°36'0 1.0
2018-May-25 04:30N 45°24' W 073°35'1 1.9
2018-May-25 04:00N 45°24' W 073°34'1 2.0
2018-May-25 03:30N 45°24' W 073°33'2 4.4
2018-May-25 03:00N 45°26' W 073°30'4 4.9
2018-May-25 02:15N 45°30' W 073°31'0 0.3
2018-May-25 02:00N 45°30' W 073°31'0 0.5
2018-May-25 01:30N 45°30' W 073°31'0 0.7
2018-May-25 01:00N 45°30' W 073°31'5 4.1
2018-May-24 23:40N 45°36' W 073°30'2 6.6
2018-May-24 23:26N 45°37' W 073°30'3 7.4
2018-May-24 22:59N 45°40' W 073°28'5 9.0
2018-May-24 22:29N 45°44' W 073°25'4 9.1
2018-May-24 22:00N 45°47' W 073°21'5 9.4
2018-May-24 21:30N 45°51' W 073°16'5 9.0
2018-May-24 20:59N 45°55' W 073°13'4 9.0
2018-May-24 20:30N 45°59' W 073°11'4 8.0
2018-May-24 20:00N 46°03' W 073°09'1 2.6
2018-May-24 19:27N 46°03' W 073°07'0 0.0
2018-May-24 19:00N 46°03' W 073°07'0 0.0
2018-May-24 18:30N 46°03' W 073°07'0 0.0
2018-May-24 18:00N 46°03' W 073°07'0 0.0
2018-May-24 17:30N 46°03' W 073°07'0 0.0
2018-May-24 17:00N 46°03' W 073°07'0 0.0
2018-May-24 16:30N 46°03' W 073°07'0 0.0
2018-May-24 15:59N 46°03' W 073°07'0 0.0
2018-May-24 15:30N 46°03' W 073°07'0 0.0
2018-May-24 15:00N 46°03' W 073°07'0 0.0
2018-May-24 14:30N 46°03' W 073°07'0 0.0
2018-May-24 14:00N 46°03' W 073°07'0 0.0
2018-May-24 13:30N 46°03' W 073°07'0 0.0
2018-May-24 09:00N 46°03' W 073°07'0 0.0
2018-May-24 08:28N 46°03' W 073°07'0 0.0
2018-May-24 08:00N 46°03' W 073°07'0 0.0
2018-May-24 07:30N 46°03' W 073°07'0 0.0
2018-May-24 07:00N 46°03' W 073°07'0 0.0
2018-May-24 06:30N 46°03' W 073°07'0 0.0
2018-May-24 06:00N 46°03' W 073°07'0 0.0
2018-May-24 05:30N 46°03' W 073°07'0 0.0
2018-May-24 05:00N 46°03' W 073°07'0 0.0
2018-May-24 04:30N 46°03' W 073°07'0 0.0
2018-May-24 04:00N 46°03' W 073°07'0 0.0
2018-May-24 03:30N 46°03' W 073°07'0 0.0
2018-May-24 03:00N 46°03' W 073°07'0 0.0
2018-May-24 02:30N 46°03' W 073°07'0 0.1
2018-May-24 02:00N 46°03' W 073°07'0 0.1
2018-May-24 01:29N 46°03' W 073°07'0 0.0
2018-May-24 01:00N 46°03' W 073°07'0 0.0
2018-May-24 00:30N 46°03' W 073°07'0 0.0
2018-May-24 00:00N 46°03' W 073°07'0 0.0
2018-May-23 23:30N 46°03' W 073°07'0 0.0
2018-May-23 23:00N 46°03' W 073°07'0 0.0
2018-May-23 22:30N 46°03' W 073°07'0 0.0
2018-May-23 21:59N 46°03' W 073°07'0 0.0
2018-May-23 21:29N 46°03' W 073°07'0 0.0
2018-May-23 21:00N 46°03' W 073°07'0 0.0
2018-May-23 20:29N 46°03' W 073°07'0 0.0
2018-May-23 20:00N 46°03' W 073°07'0 0.0
2018-May-23 19:30N 46°03' W 073°07'0 0.0
2018-May-23 19:00N 46°03' W 073°07'0 0.0
2018-May-23 18:30N 46°03' W 073°07'0 0.0
2018-May-23 18:00N 46°03' W 073°07'0 0.0
2018-May-23 17:30N 46°03' W 073°07'0 0.0
2018-May-23 17:00N 46°03' W 073°07'0 0.0
2018-May-23 16:29N 46°03' W 073°07'0 0.0
2018-May-23 16:00N 46°03' W 073°07'0 0.0
2018-May-23 15:29N 46°03' W 073°07'0 0.0
2018-May-23 15:00N 46°03' W 073°07'0 0.0
2018-May-23 14:28N 46°03' W 073°07'0 0.0
2018-May-23 13:59N 46°03' W 073°07'0 0.0
2018-May-23 13:28N 46°03' W 073°07'0 0.0
2018-May-23 13:00N 46°03' W 073°07'0 0.0
2018-May-23 12:30N 46°03' W 073°07'0 0.0
2018-May-23 12:00N 46°03' W 073°07'0 0.0
2018-May-23 11:29N 46°03' W 073°07'0 0.0
2018-May-23 11:00N 46°03' W 073°07'0 0.0
2018-May-23 10:30N 46°03' W 073°07'0 0.0
2018-May-23 10:00N 46°03' W 073°07'0 0.0
2018-May-23 09:30N 46°03' W 073°07'0 0.0
2018-May-23 09:00N 46°03' W 073°07'0 0.0
2018-May-23 08:29N 46°03' W 073°07'0 0.0
2018-May-23 08:00N 46°03' W 073°07'0 0.0
2018-May-23 07:30N 46°03' W 073°07'0 0.0
2018-May-23 06:59N 46°03' W 073°07'0 0.0
2018-May-23 06:30N 46°03' W 073°07'0 0.4
2018-May-23 06:00N 46°03' W 073°07'1 1.7
2018-May-23 05:30N 46°03' W 073°08'510.3
2018-May-23 05:00N 45°58' W 073°12'612.9
2018-May-23 04:30N 45°53' W 073°15'713.3
2018-May-23 04:00N 45°47' W 073°21'713.2
2018-May-23 03:30N 45°42' W 073°27'611.4
2018-May-23 03:00N 45°37' W 073°30'6 8.6
2018-May-23 02:15N 45°30' W 073°31'1 2.3
2018-May-23 02:00N 45°30' W 073°31'0 0.3
2018-May-23 01:30N 45°30' W 073°31'2 3.9
2018-May-23 01:00N 45°28' W 073°30'3 5.9
2018-May-23 00:30N 45°25' W 073°31'2 4.1
2018-May-23 00:00N 45°24' W 073°34'0 0.5
2018-May-22 23:30N 45°24' W 073°34'1 2.6
2018-May-22 22:58N 45°24' W 073°36'2 5.0
2018-May-22 22:30N 45°25' W 073°40'3 5.6
2018-May-22 22:00N 45°24' W 073°43'5 9.1
2018-May-22 21:30N 45°22' W 073°49'5 9.7
2018-May-22 20:59N 45°19' W 073°55'0 0.6
2018-May-22 20:30N 45°19' W 073°55'1 1.5
2018-May-22 20:00N 45°18' W 073°56'0 0.3
2018-May-22 19:30N 45°18' W 073°56'1 2.5
2018-May-22 19:00N 45°17' W 073°56'4 8.1
2018-May-22 18:30N 45°14' W 074°00'  

Dump ship's entire track history